LiveATC.Net - Listen to live air traffic control over the Internet!


ICAO: LSGS  IATA: SIR   Airport: Sion International Airport
City: Sion
Country: Switzerland   Continent: Europe
LSGS METAR Weather: LSGS 251520Z 24010KT 200V270 9999 FEW090 27/10 Q1016
LSGS Flight Activity (FlightAware)
LSGS Webcam:  (Airport Webcams) 

LSGS Gnd/Twr/App
Feed Status: DOWN
Last heard on: 2018-06-08 04:24:03 (17 days 11 hours 15 minutes ago)
LSGS Gnd/Twr/App Audio Archives
FacilityFrequency
Alpine Jet Service Handling131.675
Sion Airport Handling131.475
Sion Approach (IFR ARR MIL OFF)126.825
Sion Ground121.700
Sion Tower118.275
LiveATC LSGS - About us

NOTICE

Unauthorized use prohibited. See LiveATC.net Terms of Service


Find LiveATC Audio Streams


Airport/ARTCC Code

Frequency Search
(e.g., 124.400, 128.75)
Site-wide search
 


Browse LiveATC Feeds
LiveATC Coverage Map
Top 50 LiveATC Feeds
Bad Weather Areas

LiveATC FAQ
Offer a LiveATC Feed
Contact LiveATC.net
Press Inquiries

LiveATC on iPhone
LiveATC on Android

Windows Phone
Windows 8/10

LiveATC Mobile
(Mobile browser)

ATC Audio Archives
Interesting Recordings

LiveATC Forums


Home Page
About LiveATC.net
Make a Donation
Terms of Use
Privacy Policy

Canadian Air Freqs

AIRMETs/SIGMETs

FAA Airport Status
Nat'l Airspace Status
Arrival Demand Charts


Server Software By:
Icecast.org
Liquidsoap